Terminal Aerodrome Forecast
Issued by NWS Charleston, WV

Current Version | Previous Version | Text Only | Print | Product List | Glossary Off
Versions: 1 2 3 4 5 6 7 8 9 10 11 12 13 14 15 16 17 18 19 20 21 22 23 24

000
FTUS41 KRLX 251300 AAA
TAFHTS
TAF AMD
KHTS 251358Z 2514/2612 VRB03KT 1SM BR BKN002
      TEMPO 2514/2516 4SM BR SCT007
     FM251600 VRB03KT P6SM FEW007 SCT020
     FM251900 VRB03KT P6SM SCT045
     FM252200 19005KT P6SM SCT250
     FM261100 VRB03KT 6SM BR SCT150=

USA.gov is the U.S. government's official web portal to all federal, state and local government web resources and services.